createdAt,value
2022-12-03T00:01:02.762Z,3.56
2022-12-03T00:03:04.105Z,3.57
2022-12-03T00:05:05.515Z,3.57
2022-12-03T00:07:07.461Z,3.56
2022-12-03T00:09:09.337Z,3.56
2022-12-03T00:11:11.018Z,3.56
2022-12-03T00:15:13.922Z,3.56
2022-12-03T00:17:15.563Z,3.57
2022-12-03T00:19:16.560Z,3.56
2022-12-03T00:21:17.723Z,3.57
2022-12-03T00:23:19.172Z,3.56
2022-12-03T00:25:20.770Z,3.56
2022-12-03T00:27:22.440Z,3.56
2022-12-03T00:31:25.624Z,3.56
2022-12-03T00:33:26.900Z,3.56
2022-12-03T00:35:28.595Z,3.56
2022-12-03T00:37:29.826Z,3.56
2022-12-03T00:39:30.933Z,3.56
2022-12-03T00:41:32.907Z,3.56
2022-12-03T00:43:34.873Z,3.56
2022-12-03T00:47:37.907Z,3.56
2022-12-03T00:49:39.280Z,3.56
2022-12-03T00:51:40.781Z,3.56
2022-12-03T00:53:42.168Z,3.56
2022-12-03T00:57:45.895Z,3.56
2022-12-03T00:59:47.082Z,3.56
2022-12-03T01:01:48.787Z,3.56
2022-12-03T01:03:50.036Z,3.56
2022-12-03T01:05:51.201Z,3.56
2022-12-03T01:07:52.954Z,3.56
2022-12-03T01:09:54.347Z,3.56
2022-12-03T01:13:58.228Z,3.56
2022-12-03T01:15:59.595Z,3.56
2022-12-03T01:18:01.042Z,3.56
2022-12-03T01:20:02.748Z,3.56
2022-12-03T01:24:06.172Z,3.56
2022-12-03T01:26:07.677Z,3.56
2022-12-03T01:28:52.884Z,3.56
2022-12-03T01:30:54.793Z,3.56
2022-12-03T01:34:57.447Z,3.56
2022-12-03T01:36:59.177Z,3.56
2022-12-03T01:41:03.999Z,3.56
2022-12-03T01:43:04.120Z,3.56
2022-12-03T01:45:05.179Z,3.56
2022-12-03T01:47:06.715Z,3.56
2022-12-03T01:51:09.539Z,3.56
2022-12-03T01:53:11.230Z,3.56
2022-12-03T01:55:12.945Z,3.56
2022-12-03T01:57:14.704Z,3.56
2022-12-03T02:01:18.231Z,3.56
2022-12-03T02:03:19.321Z,3.56
2022-12-03T02:05:20.949Z,3.56
2022-12-03T02:07:22.914Z,3.56
2022-12-03T02:09:24.159Z,3.56
2022-12-03T02:11:25.349Z,3.56
2022-12-03T02:13:27.063Z,3.56
2022-12-03T02:17:29.826Z,3.56
2022-12-03T02:19:31.457Z,3.56
2022-12-03T02:23:34.918Z,3.56
2022-12-03T02:25:36.806Z,3.56
2022-12-03T02:27:37.966Z,3.56
2022-12-03T02:29:39.933Z,3.56
2022-12-03T02:33:43.505Z,3.56
2022-12-03T02:35:44.678Z,3.56
2022-12-03T02:37:46.365Z,3.56
2022-12-03T02:39:48.341Z,3.56
2022-12-03T02:43:50.673Z,3.56
2022-12-03T02:45:51.896Z,3.56
2022-12-03T02:49:54.843Z,3.56
2022-12-03T02:51:56.080Z,3.56
2022-12-03T02:53:57.831Z,3.56
2022-12-03T02:55:59.575Z,3.56
2022-12-03T03:00:02.345Z,3.56
2022-12-03T03:02:03.634Z,3.56
2022-12-03T03:04:05.077Z,3.56
2022-12-03T03:06:06.490Z,3.56
2022-12-03T03:08:07.868Z,3.56
2022-12-03T03:10:08.846Z,3.56
2022-12-03T03:12:10.557Z,3.56
2022-12-03T03:16:13.865Z,3.56
2022-12-03T03:18:15.608Z,3.56
2022-12-03T03:20:17.520Z,3.56
2022-12-03T03:22:18.971Z,3.56
2022-12-03T03:24:20.633Z,3.56
2022-12-03T03:26:22.239Z,3.56
2022-12-03T03:28:24.170Z,3.56
2022-12-03T03:32:26.831Z,3.56
2022-12-03T03:34:28.491Z,3.56
2022-12-03T03:36:30.148Z,3.55
2022-12-03T03:38:31.969Z,3.55
2022-12-03T03:42:35.513Z,3.56
2022-12-03T03:44:36.901Z,3.55
2022-12-03T03:46:38.158Z,3.56
2022-12-03T03:48:39.905Z,3.55
2022-12-03T03:50:41.099Z,3.55
2022-12-03T03:52:42.611Z,3.55
2022-12-03T03:54:43.945Z,3.55
2022-12-03T03:56:45.956Z,3.55
2022-12-03T03:58:47.950Z,3.56
2022-12-03T04:00:49.561Z,3.55
2022-12-03T04:02:51.218Z,3.56
2022-12-03T04:04:53.069Z,3.55
2022-12-03T04:06:54.646Z,3.56
2022-12-03T04:08:56.443Z,3.55
2022-12-03T04:10:58.109Z,3.55
2022-12-03T04:13:00.116Z,3.55
2022-12-03T04:15:01.592Z,3.55
2022-12-03T04:17:02.641Z,3.55
2022-12-03T04:19:04.329Z,3.56
2022-12-03T04:21:05.985Z,3.56
2022-12-03T04:25:09.070Z,3.56
2022-12-03T04:27:10.572Z,3.55
2022-12-03T04:29:11.904Z,3.55
2022-12-03T04:31:13.232Z,3.55
2022-12-03T04:33:14.780Z,3.55
2022-12-03T04:35:16.839Z,3.55
2022-12-03T04:37:18.581Z,3.55
2022-12-03T04:41:21.760Z,3.55
2022-12-03T04:43:23.147Z,3.55
2022-12-03T04:45:25.107Z,3.55
2022-12-03T04:47:26.685Z,3.55
2022-12-03T04:49:28.661Z,3.55
2022-12-03T04:51:29.815Z,3.55
2022-12-03T04:53:31.727Z,3.55
2022-12-03T04:57:34.093Z,3.55
2022-12-03T04:59:35.407Z,3.55
2022-12-03T05:01:37.334Z,3.55
2022-12-03T05:03:39.134Z,3.55
2022-12-03T05:07:42.318Z,3.55
2022-12-03T05:09:44.070Z,3.55
2022-12-03T05:11:45.520Z,3.55
2022-12-03T05:13:46.870Z,3.55
2022-12-03T05:15:48.852Z,3.55
2022-12-03T05:17:49.887Z,3.55
2022-12-03T05:19:50.922Z,3.55
2022-12-03T05:23:54.055Z,3.55
2022-12-03T05:25:55.378Z,3.55
2022-12-03T05:29:58.817Z,3.55
2022-12-03T05:32:00.686Z,3.55
2022-12-03T05:34:02.059Z,3.55
2022-12-03T05:36:04.105Z,3.55
2022-12-03T05:40:06.787Z,3.55
2022-12-03T05:42:08.755Z,3.55
2022-12-03T05:44:10.776Z,3.55
2022-12-03T05:46:12.795Z,3.55
2022-12-03T05:50:14.983Z,3.55
2022-12-03T05:52:16.782Z,3.55
2022-12-03T05:56:19.476Z,3.55
2022-12-03T05:58:21.069Z,3.55
2022-12-03T06:00:22.354Z,3.55
2022-12-03T06:02:23.851Z,3.55
2022-12-03T06:06:27.032Z,3.54
2022-12-03T06:08:28.985Z,3.55
2022-12-03T06:10:30.803Z,3.55
2022-12-03T06:12:32.676Z,3.54
2022-12-03T06:14:33.785Z,3.55
2022-12-03T06:16:35.119Z,3.55
2022-12-03T06:18:36.673Z,3.54
2022-12-03T06:22:40.187Z,3.54
2022-12-03T06:24:41.321Z,3.54
2022-12-03T06:26:43.291Z,3.54
2022-12-03T06:28:44.990Z,3.54
2022-12-03T06:32:47.638Z,3.54
2022-12-03T06:34:49.544Z,3.54
2022-12-03T06:38:52.843Z,3.54
2022-12-03T06:40:54.464Z,3.55
2022-12-03T06:42:56.548Z,3.54
2022-12-03T06:44:57.793Z,3.54
2022-12-03T06:49:00.246Z,3.54
2022-12-03T06:51:01.886Z,3.54
2022-12-03T06:53:03.341Z,3.54
2022-12-03T06:55:04.978Z,3.54
2022-12-03T06:57:06.870Z,3.54
2022-12-03T06:59:07.914Z,3.54
2022-12-03T07:01:09.605Z,3.55
2022-12-03T07:05:12.458Z,3.54
2022-12-03T07:07:13.809Z,3.54
2022-12-03T07:09:15.413Z,3.54
2022-12-03T07:11:16.698Z,3.54
2022-12-03T07:15:19.042Z,3.54
2022-12-03T07:17:20.651Z,3.54
2022-12-03T07:19:23.428Z,3.54
2022-12-03T07:21:23.163Z,3.54
2022-12-03T07:23:25.160Z,3.54
2022-12-03T07:25:26.417Z,3.54
2022-12-03T07:27:28.222Z,3.54
2022-12-03T07:31:30.658Z,3.54
2022-12-03T07:33:31.625Z,3.54
2022-12-03T07:37:35.020Z,3.54
2022-12-03T07:39:36.516Z,3.54
2022-12-03T07:41:38.454Z,3.54
2022-12-03T07:43:39.522Z,3.54
2022-12-03T07:47:42.490Z,3.54
2022-12-03T07:49:44.195Z,3.54
2022-12-03T07:51:45.727Z,3.54
2022-12-03T07:53:46.940Z,3.54
2022-12-03T07:57:49.872Z,3.54
2022-12-03T07:59:51.481Z,3.54
2022-12-03T08:01:53.031Z,3.54
2022-12-03T08:03:54.575Z,3.54
2022-12-03T08:05:56.499Z,3.54
2022-12-03T08:07:57.985Z,3.54
2022-12-03T08:09:59.265Z,3.54
2022-12-03T08:12:44.722Z,3.54
2022-12-03T08:14:46.442Z,3.54
2022-12-03T08:16:47.692Z,3.54
2022-12-03T08:18:49.485Z,3.54
2022-12-03T08:20:51.286Z,3.54
2022-12-03T08:24:54.624Z,3.54
2022-12-03T08:26:56.132Z,3.54
2022-12-03T08:28:57.788Z,3.54
2022-12-03T08:30:59.313Z,3.54
2022-12-03T08:33:00.360Z,3.54
2022-12-03T08:35:02.238Z,3.54
2022-12-03T08:37:03.625Z,3.54
2022-12-03T08:41:07.351Z,3.54
2022-12-03T08:43:09.113Z,3.54
2022-12-03T08:45:10.639Z,3.54
2022-12-03T08:47:11.993Z,3.54
2022-12-03T08:51:14.739Z,3.53
2022-12-03T08:53:16.350Z,3.54
2022-12-03T08:55:18.273Z,3.54
2022-12-03T08:57:19.771Z,3.54
2022-12-03T08:59:21.447Z,3.53
2022-12-03T09:01:22.902Z,3.54
2022-12-03T09:03:24.713Z,3.53
2022-12-03T09:07:28.035Z,3.53
2022-12-03T09:09:29.696Z,3.53
2022-12-03T09:11:30.783Z,3.54
2022-12-03T09:13:32.466Z,3.53
2022-12-03T09:15:33.845Z,3.53
2022-12-03T09:17:35.096Z,3.54
2022-12-03T09:19:40.092Z,3.53
2022-12-03T09:23:39.855Z,3.53
2022-12-03T09:25:41.136Z,3.53
2022-12-03T09:27:42.717Z,3.54
2022-12-03T09:29:44.649Z,3.54
2022-12-03T09:33:47.983Z,3.54
2022-12-03T09:35:49.566Z,3.53
2022-12-03T09:37:51.047Z,3.54
2022-12-03T09:39:52.178Z,3.53
2022-12-03T09:41:53.463Z,3.53
2022-12-03T09:44:04.238Z,3.53
2022-12-03T09:45:57.144Z,3.53
2022-12-03T09:49:59.340Z,3.54
2022-12-03T09:52:00.948Z,3.53
2022-12-03T09:54:02.685Z,3.54
2022-12-03T09:56:04.602Z,3.54
2022-12-03T09:58:05.648Z,3.53
2022-12-03T10:00:07.637Z,3.54
2022-12-03T10:02:09.082Z,3.54
2022-12-03T10:06:11.796Z,3.53
2022-12-03T10:08:13.181Z,3.54
2022-12-03T10:10:14.895Z,3.54
2022-12-03T10:12:16.552Z,3.54
2022-12-03T10:16:19.444Z,3.53
2022-12-03T10:18:20.673Z,3.54
2022-12-03T10:22:23.537Z,3.54
2022-12-03T10:24:25.346Z,3.53
2022-12-03T10:26:26.642Z,3.53
2022-12-03T10:28:28.336Z,3.53
2022-12-03T10:32:31.572Z,3.54
2022-12-03T10:34:33.022Z,3.54
2022-12-03T10:36:34.189Z,3.54
2022-12-03T10:38:35.366Z,3.54
2022-12-03T10:40:36.479Z,3.54
2022-12-03T10:42:38.037Z,3.54
2022-12-03T10:44:40.008Z,3.54
2022-12-03T10:48:43.599Z,3.54
2022-12-03T10:50:44.632Z,3.54
2022-12-03T10:52:45.959Z,3.54
2022-12-03T10:54:47.178Z,3.54
2022-12-03T10:56:48.532Z,3.54
2022-12-03T10:58:50.101Z,3.55
2022-12-03T11:00:51.405Z,3.55
2022-12-03T11:04:55.072Z,3.56
2022-12-03T11:06:56.021Z,3.56
2022-12-03T11:10:58.980Z,3.56
2022-12-03T11:13:00.205Z,3.56
2022-12-03T11:15:01.204Z,3.57
2022-12-03T11:17:02.229Z,3.57
2022-12-03T11:21:05.469Z,3.55
2022-12-03T11:23:06.569Z,3.56
2022-12-03T11:25:08.548Z,3.56
2022-12-03T11:27:09.669Z,3.55
2022-12-03T11:29:10.827Z,3.54
2022-12-03T11:31:12.564Z,3.54
2022-12-03T11:33:14.086Z,3.54
2022-12-03T11:37:17.021Z,3.55
2022-12-03T11:39:18.441Z,3.55
2022-12-03T11:41:19.904Z,3.55
2022-12-03T11:43:21.403Z,3.55
2022-12-03T11:47:24.046Z,3.55
2022-12-03T11:49:25.178Z,3.54
2022-12-03T11:51:26.638Z,3.54
2022-12-03T11:53:28.222Z,3.54
2022-12-03T11:55:29.333Z,3.54
2022-12-03T11:57:31.265Z,3.54
2022-12-03T11:59:32.963Z,3.54
2022-12-03T12:03:35.629Z,3.54
2022-12-03T12:05:37.344Z,3.54
2022-12-03T12:07:39.096Z,3.54
2022-12-03T12:09:40.244Z,3.54
2022-12-03T12:11:42.048Z,3.54
2022-12-03T12:13:43.490Z,3.54
2022-12-03T12:15:44.646Z,3.54
2022-12-03T12:19:51.147Z,3.54
2022-12-03T12:21:57.159Z,3.54
2022-12-03T12:23:50.511Z,3.54
2022-12-03T12:25:54.308Z,3.54
2022-12-03T12:29:55.062Z,3.54
2022-12-03T12:31:56.368Z,3.54
2022-12-03T12:35:58.732Z,3.54
2022-12-03T12:38:00.665Z,3.54
2022-12-03T12:40:01.720Z,3.53
2022-12-03T12:42:03.578Z,3.54
2022-12-03T12:46:25.221Z,3.53
2022-12-03T12:48:08.887Z,3.53
2022-12-03T12:50:10.068Z,3.54
2022-12-03T12:52:11.311Z,3.54
2022-12-03T12:54:12.818Z,3.53
2022-12-03T12:56:14.165Z,3.54
2022-12-03T12:58:15.849Z,3.53
2022-12-03T13:02:19.864Z,3.53
2022-12-03T13:04:21.515Z,3.53
2022-12-03T13:06:22.921Z,3.53
2022-12-03T13:08:24.445Z,3.53
2022-12-03T13:12:26.862Z,3.53
2022-12-03T13:14:28.230Z,3.54
2022-12-03T13:16:29.328Z,3.53
2022-12-03T13:18:31.144Z,3.53
2022-12-03T13:20:32.645Z,3.53
2022-12-03T13:22:34.038Z,3.53
2022-12-03T13:24:35.951Z,3.53
2022-12-03T13:28:39.352Z,3.53
2022-12-03T13:30:40.622Z,3.53
2022-12-03T13:34:43.290Z,3.53
2022-12-03T13:36:44.578Z,3.53
2022-12-03T13:38:46.021Z,3.53
2022-12-03T13:40:47.631Z,3.53
2022-12-03T13:44:49.786Z,3.53
2022-12-03T13:46:50.942Z,3.53
2022-12-03T13:48:54.609Z,3.53
2022-12-03T13:50:54.375Z,3.53
2022-12-03T13:54:57.564Z,3.53
2022-12-03T13:56:59.103Z,3.53
2022-12-03T13:59:00.228Z,3.52
2022-12-03T14:01:01.319Z,3.53
2022-12-03T14:03:03.169Z,3.53
2022-12-03T14:05:04.940Z,3.53
2022-12-03T14:07:06.381Z,3.53
2022-12-03T14:11:10.121Z,3.52
2022-12-03T14:13:11.497Z,3.53
2022-12-03T14:17:14.969Z,3.53
2022-12-03T14:19:16.180Z,3.53
2022-12-03T14:21:18.185Z,3.52
2022-12-03T14:23:20.123Z,3.53
2022-12-03T14:27:23.007Z,3.52
2022-12-03T14:29:24.863Z,3.52
2022-12-03T14:31:26.538Z,3.52
2022-12-03T14:33:27.794Z,3.52
2022-12-03T14:37:30.128Z,3.52
2022-12-03T14:39:32.140Z,3.53
2022-12-03T14:41:33.354Z,3.52
2022-12-03T14:43:34.401Z,3.53
2022-12-03T14:45:35.837Z,3.53
2022-12-03T14:47:37.342Z,3.52
2022-12-03T14:49:39.183Z,3.52
2022-12-03T14:53:41.991Z,3.52
2022-12-03T14:55:43.773Z,3.52
2022-12-03T14:57:44.781Z,3.52
2022-12-03T15:00:30.671Z,3.52
2022-12-03T15:04:33.677Z,3.52
2022-12-03T15:06:34.995Z,3.52
2022-12-03T15:08:36.843Z,3.52
2022-12-03T15:10:37.986Z,3.52
2022-12-03T15:12:39.054Z,3.52
2022-12-03T15:14:40.303Z,3.52
2022-12-03T15:16:42.029Z,3.52
2022-12-03T15:18:43.971Z,3.52
2022-12-03T15:20:45.114Z,3.52
2022-12-03T15:22:46.150Z,3.52
2022-12-03T15:24:47.690Z,3.52
2022-12-03T15:26:48.960Z,3.52
2022-12-03T15:30:52.240Z,3.52
2022-12-03T15:32:54.045Z,3.52
2022-12-03T15:34:55.406Z,3.52
2022-12-03T15:36:56.885Z,3.52
2022-12-03T15:38:58.006Z,3.52
2022-12-03T15:40:59.201Z,3.52
2022-12-03T15:43:00.439Z,3.52
2022-12-03T15:47:03.823Z,3.52
2022-12-03T15:49:05.456Z,3.52
2022-12-03T15:51:06.894Z,3.52
2022-12-03T15:53:08.669Z,3.52
2022-12-03T15:55:10.139Z,3.52
2022-12-03T15:57:11.848Z,3.52
2022-12-03T15:59:13.583Z,3.52
2022-12-03T16:03:16.729Z,3.52
2022-12-03T16:05:18.213Z,3.52
2022-12-03T16:07:20.085Z,3.52
2022-12-03T16:09:26.862Z,3.52
2022-12-03T16:13:24.270Z,3.52
2022-12-03T16:15:27.356Z,3.52
2022-12-03T16:19:28.668Z,3.52
2022-12-03T16:21:29.725Z,3.52
2022-12-03T16:23:31.428Z,3.52
2022-12-03T16:25:33.124Z,3.52
2022-12-03T16:29:36.152Z,3.52
2022-12-03T16:31:37.940Z,3.52
2022-12-03T16:33:39.261Z,3.52
2022-12-03T16:35:40.728Z,3.51
2022-12-03T16:37:42.299Z,3.52
2022-12-03T16:39:44.183Z,3.52
2022-12-03T16:41:46.130Z,3.52
2022-12-03T16:45:48.796Z,3.52
2022-12-03T16:47:50.501Z,3.52
2022-12-03T16:49:52.471Z,3.52
2022-12-03T16:51:53.948Z,3.52
2022-12-03T16:55:56.448Z,3.52
2022-12-03T16:57:58.279Z,3.52
2022-12-03T16:59:59.669Z,3.52
2022-12-03T17:02:00.958Z,3.51
2022-12-03T17:04:02.250Z,3.52
2022-12-03T17:06:03.402Z,3.52
2022-12-03T17:08:05.318Z,3.51
2022-12-03T17:12:08.426Z,3.52
2022-12-03T17:14:09.983Z,3.52
2022-12-03T17:18:12.456Z,3.51
2022-12-03T17:20:14.342Z,3.51
2022-12-03T17:22:16.307Z,3.51
2022-12-03T17:24:17.672Z,3.51
2022-12-03T17:26:19.781Z,3.51
2022-12-03T17:28:21.201Z,3.52
2022-12-03T17:30:23.002Z,3.51
2022-12-03T17:32:24.980Z,3.51
2022-12-03T17:34:26.239Z,3.51
2022-12-03T17:38:32.729Z,3.51
2022-12-03T17:40:30.830Z,3.51
2022-12-03T17:42:32.643Z,3.51
2022-12-03T17:44:34.236Z,3.51
2022-12-03T17:46:36.004Z,3.51
2022-12-03T17:48:37.552Z,3.51
2022-12-03T17:50:38.639Z,3.51
2022-12-03T17:56:43.350Z,3.51
2022-12-03T18:00:46.763Z,3.51
2022-12-03T18:02:48.215Z,3.51
2022-12-03T18:04:50.214Z,3.51
2022-12-03T18:06:51.254Z,3.51
2022-12-03T18:10:54.405Z,3.51
2022-12-03T18:12:59.992Z,3.51
2022-12-03T18:14:57.175Z,3.51
2022-12-03T18:16:58.708Z,3.51
2022-12-03T18:21:01.605Z,3.51
2022-12-03T18:23:03.102Z,3.51
2022-12-03T18:25:05.004Z,3.5
2022-12-03T18:27:06.165Z,3.51
2022-12-03T18:29:07.603Z,3.51
2022-12-03T18:31:08.765Z,3.51
2022-12-03T18:33:10.248Z,3.51
2022-12-03T18:37:13.376Z,3.51
2022-12-03T18:39:14.585Z,3.51
2022-12-03T18:41:16.423Z,3.51
2022-12-03T18:43:17.883Z,3.5
2022-12-03T18:45:19.132Z,3.51
2022-12-03T18:47:20.826Z,3.51
2022-12-03T18:49:21.832Z,3.5
2022-12-03T18:53:24.689Z,3.51
2022-12-03T18:57:28.348Z,3.5
2022-12-03T19:01:32.143Z,3.5
2022-12-03T19:03:33.617Z,3.5
2022-12-03T19:05:35.579Z,3.5
2022-12-03T19:09:38.656Z,3.5
2022-12-03T19:11:40.369Z,3.5
2022-12-03T19:13:41.419Z,3.5
2022-12-03T19:15:43.122Z,3.5
2022-12-03T19:19:45.916Z,3.5
2022-12-03T19:21:47.864Z,3.5
2022-12-03T19:24:16.369Z,3.5
2022-12-03T19:25:50.413Z,3.5
2022-12-03T19:27:51.872Z,3.5
2022-12-03T19:29:54.020Z,3.5
2022-12-03T19:31:55.619Z,3.5
2022-12-03T19:35:58.302Z,3.5
2022-12-03T19:38:00.238Z,3.5
2022-12-03T19:40:02.292Z,3.5
2022-12-03T19:42:04.178Z,3.5
2022-12-03T19:44:10.680Z,3.5
2022-12-03T19:46:07.203Z,3.5
2022-12-03T19:48:08.859Z,3.5
2022-12-03T19:52:12.233Z,3.5
2022-12-03T19:54:13.899Z,3.5
2022-12-03T19:56:15.889Z,3.5
2022-12-03T19:58:17.006Z,3.5
2022-12-03T20:02:20.849Z,3.5
2022-12-03T20:04:22.729Z,3.5
2022-12-03T20:06:24.143Z,3.5
2022-12-03T20:08:26.087Z,3.5
2022-12-03T20:10:27.638Z,3.5
2022-12-03T20:12:29.062Z,3.5
2022-12-03T20:14:30.607Z,3.5
2022-12-03T20:18:33.593Z,3.5
2022-12-03T20:20:34.842Z,3.5
2022-12-03T20:22:36.871Z,3.5
2022-12-03T20:24:38.795Z,3.5
2022-12-03T20:26:40.703Z,3.5
2022-12-03T20:28:42.323Z,3.5
2022-12-03T20:30:43.911Z,3.5
2022-12-03T20:34:46.822Z,3.5
2022-12-03T20:36:48.320Z,3.5
2022-12-03T20:38:50.069Z,3.5
2022-12-03T20:40:51.490Z,3.5
2022-12-03T20:44:54.521Z,3.5
2022-12-03T20:46:55.785Z,3.5
2022-12-03T20:48:57.439Z,3.5
2022-12-03T20:50:58.629Z,3.5
2022-12-03T20:53:22.942Z,3.5
2022-12-03T20:55:01.664Z,3.5
2022-12-03T20:57:03.194Z,3.49
2022-12-03T21:01:09.090Z,3.5
2022-12-03T21:03:07.729Z,3.49
2022-12-03T21:05:09.359Z,3.5
2022-12-03T21:07:11.161Z,3.49
2022-12-03T21:09:12.816Z,3.5
2022-12-03T21:11:14.054Z,3.49
2022-12-03T21:13:15.999Z,3.49
2022-12-03T21:17:19.093Z,3.49
2022-12-03T21:19:20.067Z,3.49
2022-12-03T21:21:22.093Z,3.49
2022-12-03T21:23:23.691Z,3.5
2022-12-03T21:27:25.978Z,3.49
2022-12-03T21:29:27.554Z,3.49
2022-12-03T21:31:29.152Z,3.49
2022-12-03T21:33:30.779Z,3.49
2022-12-03T21:35:32.648Z,3.49
2022-12-03T21:37:33.837Z,3.49
2022-12-03T21:39:34.943Z,3.49
2022-12-03T21:43:37.328Z,3.49
2022-12-03T21:44:21.262Z,3.49
2022-12-03T21:47:08.985Z,3.49
2022-12-03T21:48:23.858Z,3.49
2022-12-03T21:50:25.160Z,3.48
2022-12-03T21:54:27.670Z,3.49
2022-12-03T21:56:29.575Z,3.49
2022-12-03T21:58:30.970Z,3.49
2022-12-03T22:00:32.761Z,3.48
2022-12-03T22:04:35.845Z,3.49
2022-12-03T22:06:37.382Z,3.49
2022-12-03T22:10:39.962Z,3.48
2022-12-03T22:12:41.166Z,3.49
2022-12-03T22:14:42.745Z,3.48
2022-12-03T22:16:43.819Z,3.49
2022-12-03T22:20:47.661Z,3.48
2022-12-03T22:22:49.061Z,3.48
2022-12-03T22:24:50.803Z,3.48
2022-12-03T22:26:51.936Z,3.48
2022-12-03T22:28:53.198Z,3.48
2022-12-03T22:30:54.770Z,3.48
2022-12-03T22:32:56.070Z,3.48
2022-12-03T22:36:59.569Z,3.48
2022-12-03T22:39:00.607Z,3.48
2022-12-03T22:41:02.244Z,3.48
2022-12-03T22:43:03.477Z,3.48
2022-12-03T22:47:06.059Z,3.48
2022-12-03T22:49:07.927Z,3.48
2022-12-03T22:51:09.090Z,3.48
2022-12-03T22:53:10.839Z,3.48
2022-12-03T22:55:12.489Z,3.48
2022-12-03T22:57:14.019Z,3.48
2022-12-03T22:59:15.926Z,3.48
2022-12-03T23:03:18.943Z,3.48
2022-12-03T23:05:20.362Z,3.48
2022-12-03T23:09:23.458Z,3.48
2022-12-03T23:11:24.785Z,3.48
2022-12-03T23:13:26.641Z,3.48
2022-12-03T23:15:27.824Z,3.48
2022-12-03T23:19:31.218Z,3.48
2022-12-03T23:21:33.120Z,3.48
2022-12-03T23:23:34.762Z,3.48
2022-12-03T23:25:35.867Z,3.48
2022-12-03T23:27:37.897Z,3.48
2022-12-03T23:29:39.454Z,3.48
2022-12-03T23:31:40.977Z,3.48
2022-12-03T23:35:43.631Z,3.48
2022-12-03T23:37:45.532Z,3.48
2022-12-03T23:39:47.387Z,3.48
2022-12-03T23:41:49.219Z,3.48
2022-12-03T23:45:52.101Z,3.48
2022-12-03T23:47:57.957Z,3.48
2022-12-03T23:49:55.317Z,3.48
2022-12-03T23:51:57.029Z,3.48
2022-12-03T23:53:58.148Z,3.48
2022-12-03T23:55:59.230Z,3.48
2022-12-03T23:58:00.317Z,3.48
